Time;durP1;ratioP1;P1;durP2;ratioP2;P2;SDS_P1;SDS_P2;PMS_P1;PMS_P2;Temp;Humidity;BMP_temperature;BMP_pressure;BME280_temperature;BME280_humidity;BME280_pressure;Samples;Min_cycle;Max_cycle;Signal;HPM_P1;HPM_P2
2022/01/31 00:01:18;;;;;;;13.50;1.87;;;;;;;6.46;40.65;99840.63;4363753;32;32559;-83
2022/01/31 00:03:46;;;;;;;4.87;1.15;;;;;;;6.36;40.70;99840.91;4363418;32;33809;-83
2022/01/31 00:06:13;;;;;;;15.23;1.95;;;;;;;5.82;41.76;99851.81;4351098;32;33324;-83
2022/01/31 00:08:42;;;;;;;7.65;1.52;;;;;;;6.42;40.42;99860.88;4363126;32;33557;-84
2022/01/31 00:11:11;;;;;;;7.00;1.45;;;;;;;6.32;40.55;99855.00;4361941;32;33098;-83
2022/01/31 00:13:43;;;;;;;12.00;1.87;;;;;;;6.22;40.95;99853.50;4375988;32;33757;-84
2022/01/31 00:16:16;;;;;;;6.47;1.30;;;;;;;6.00;41.39;99862.78;4362628;32;33376;-83
2022/01/31 00:18:44;;;;;;;13.55;1.62;;;;;;;6.05;41.39;99858.28;4363635;32;33857;-83
2022/01/31 00:21:11;;;;;;;8.60;1.70;;;;;;;5.80;41.91;99848.37;4363637;32;34574;-83
2022/01/31 00:23:39;;;;;;;10.82;2.20;;;;;;;5.91;41.32;99848.09;4357234;32;33928;-81
2022/01/31 00:26:06;;;;;;;5.22;1.87;;;;;;;6.28;40.53;99842.00;4363551;32;33911;-82
2022/01/31 00:28:34;;;;;;;11.45;1.62;;;;;;;6.45;39.80;99834.53;4347109;32;33926;-82
2022/01/31 00:31:02;;;;;;;10.05;1.67;;;;;;;6.16;40.70;99827.41;4357610;32;32840;-83
2022/01/31 00:33:29;;;;;;;4.28;1.05;;;;;;;6.40;40.06;99831.16;4350537;32;34026;-82
2022/01/31 00:35:57;;;;;;;8.10;1.48;;;;;;;6.34;40.11;99832.19;4363266;32;34203;-83
2022/01/31 00:38:25;;;;;;;8.40;1.87;;;;;;;6.11;40.39;99819.66;4350663;32;34526;-82
2022/01/31 00:40:53;;;;;;;9.45;1.85;;;;;;;6.15;40.01;99823.94;4352204;32;33183;-83
2022/01/31 00:43:21;;;;;;;6.25;1.52;;;;;;;5.83;40.99;99824.69;4350945;32;33024;-83
2022/01/31 00:46:01;;;;;;;10.65;1.35;;;;;;;5.75;41.21;99816.19;4363196;32;33922;-84
2022/01/31 00:48:34;;;;;;;10.57;1.65;;;;;;;5.77;41.16;99806.50;4361312;32;33432;-85
2022/01/31 00:51:01;;;;;;;11.88;1.60;;;;;;;6.13;40.22;99806.53;4375087;32;34575;-84
2022/01/31 00:53:29;;;;;;;12.07;1.42;;;;;;;6.10;40.38;99806.62;4354842;32;34361;-84
2022/01/31 00:55:57;;;;;;;8.00;1.50;;;;;;;6.25;39.58;99808.84;4349538;32;34085;-84
2022/01/31 00:58:24;;;;;;;8.15;1.55;;;;;;;6.02;40.14;99812.03;4361775;32;33237;-84
2022/01/31 01:00:52;;;;;;;9.50;1.65;;;;;;;6.03;40.50;99812.88;4350238;32;33294;-84
2022/01/31 01:03:20;;;;;;;17.10;1.70;;;;;;;5.91;40.53;99814.03;4349359;32;32303;-84
2022/01/31 01:05:48;;;;;;;11.65;2.85;;;;;;;6.05;40.33;99808.50;4362772;32;35320;-84
2022/01/31 01:08:16;;;;;;;6.57;1.12;;;;;;;5.82;40.78;99820.34;4360735;32;33256;-83
2022/01/31 01:10:43;;;;;;;11.75;1.27;;;;;;;5.96;40.13;99813.97;4351070;32;33189;-84
2022/01/31 01:13:11;;;;;;;12.65;1.85;;;;;;;5.76;40.81;99828.38;4352002;32;34269;-83
2022/01/31 01:15:39;;;;;;;7.30;1.12;;;;;;;5.95;40.02;99833.22;4364341;32;33555;-84
2022/01/31 01:18:07;;;;;;;8.88;1.50;;;;;;;6.28;39.22;99835.00;4364181;32;34932;-84
2022/01/31 01:20:34;;;;;;;6.18;1.08;;;;;;;6.48;38.85;99844.97;4364164;32;34001;-84
2022/01/31 01:23:03;;;;;;;10.43;1.67;;;;;;;6.47;39.25;99847.63;4378157;32;33930;-84
2022/01/31 01:25:32;;;;;;;10.95;2.45;;;;;;;6.48;39.11;99844.09;4351534;32;33297;-84
2022/01/31 01:28:01;;;;;;;16.30;2.80;;;;;;;6.05;39.35;99834.69;4365072;32;32581;-84
2022/01/31 01:30:29;;;;;;;11.50;2.10;;;;;;;5.94;39.65;99839.34;4353233;32;34283;-85
2022/01/31 01:35:29;;;;;;;9.00;1.73;;;;;;;6.37;38.84;99837.38;4340111;32;32857;-85
2022/01/31 01:37:59;;;;;;;;;;;;;;;6.35;39.08;99827.81;4363619;32;34366;-84
2022/01/31 01:40:27;;;;;;;9.35;1.45;;;;;;;5.97;39.70;99831.41;4338660;32;33293;-84
2022/01/31 01:42:54;;;;;;;11.60;1.52;;;;;;;6.27;38.74;99829.78;4350301;32;33967;-84
2022/01/31 01:45:22;;;;;;;12.75;1.67;;;;;;;6.05;39.16;99816.34;4341214;32;33042;-84
2022/01/31 01:47:50;;;;;;;5.32;1.23;;;;;;;6.37;38.41;99815.53;4364168;32;32696;-84
2022/01/31 01:50:17;;;;;;;8.45;1.35;;;;;;;6.31;38.68;99803.41;4351858;32;33086;-84
2022/01/31 01:52:45;;;;;;;12.57;2.25;;;;;;;6.25;38.87;99798.34;4351557;32;34033;-85
2022/01/31 01:55:14;;;;;;;14.40;2.37;;;;;;;6.37;38.67;99792.78;4363816;32;34214;-84
2022/01/31 01:57:42;;;;;;;11.43;1.10;;;;;;;6.02;39.14;99787.59;4364499;32;32879;-84
2022/01/31 02:00:18;;;;;;;10.65;2.00;;;;;;;5.79;39.72;99775.03;4358617;32;33698;-84
2022/01/31 02:02:46;;;;;;;10.15;1.77;;;;;;;5.89;39.33;99766.91;4364214;32;33670;-86
2022/01/31 02:05:14;;;;;;;13.07;2.22;;;;;;;5.75;39.69;99769.03;4350652;32;33765;-86
2022/01/31 02:07:42;;;;;;;13.02;1.60;;;;;;;5.97;39.38;99758.00;4362392;32;33626;-84
2022/01/31 02:10:10;;;;;;;8.25;2.00;;;;;;;5.90;39.87;99773.88;4358955;32;33893;-84
2022/01/31 02:12:40;;;;;;;9.38;1.75;;;;;;;6.07;39.17;99762.13;4361096;32;31900;-85
2022/01/31 02:15:11;;;;;;;11.30;3.62;;;;;;;5.96;39.21;99774.66;4350977;32;32913;-83
2022/01/31 02:17:40;;;;;;;13.50;1.98;;;;;;;5.94;39.68;99772.06;4347620;32;33446;-83
2022/01/31 02:20:10;;;;;;;5.97;1.20;;;;;;;6.29;39.58;99770.28;4358819;32;34141;-83
2022/01/31 02:22:37;;;;;;;16.70;2.33;;;;;;;6.56;38.84;99769.53;4361169;32;33809;-83
2022/01/31 02:25:09;;;;;;;8.85;1.92;;;;;;;6.39;39.28;99777.00;4364193;32;33841;-83
2022/01/31 02:27:38;;;;;;;13.18;2.03;;;;;;;6.24;39.82;99778.28;4364339;32;34624;-83
2022/01/31 02:30:09;;;;;;;8.38;1.40;;;;;;;6.65;39.02;99769.28;4362457;32;32493;-83
2022/01/31 02:32:55;;;;;;;3.45;1.52;;;;;;;6.44;39.82;99771.63;4363311;32;33313;-83
2022/01/31 02:35:23;;;;;;;6.45;1.60;;;;;;;6.48;39.53;99762.78;4349021;32;33042;-83
2022/01/31 02:37:51;;;;;;;15.05;2.17;;;;;;;6.02;40.60;99764.00;4351074;32;33704;-84
2022/01/31 02:40:19;;;;;;;8.82;1.58;;;;;;;6.06;40.72;99768.25;4352052;32;33051;-83
2022/01/31 02:42:51;;;;;;;9.23;1.70;;;;;;;6.35;40.19;99763.09;4364431;32;33897;-83
2022/01/31 02:45:19;;;;;;;11.40;1.77;;;;;;;6.08;40.52;99762.09;4358611;32;33454;-84
2022/01/31 02:47:55;;;;;;;10.35;1.60;;;;;;;5.66;41.01;99750.91;4363775;32;33859;-83
2022/01/31 02:50:24;;;;;;;11.35;1.98;;;;;;;6.02;40.67;99741.25;4361608;32;32824;-83
2022/01/31 02:55:41;;;;;;;9.80;1.70;;;;;;;6.39;39.83;99724.56;4365182;32;34115;-83
2022/01/31 02:58:09;;;;;;;7.57;1.25;;;;;;;6.20;40.17;99724.19;4351962;32;32936;-82
2022/01/31 03:00:37;;;;;;;11.32;1.58;;;;;;;5.87;40.85;99723.28;4350368;32;33898;-83
2022/01/31 03:03:07;;;;;;;6.65;1.98;;;;;;;5.51;41.56;99722.47;4364339;32;33302;-83
2022/01/31 03:05:35;;;;;;;12.57;1.85;;;;;;;6.08;40.35;99717.53;4363918;32;34558;-83
2022/01/31 03:08:04;;;;;;;10.88;1.70;;;;;;;6.07;40.19;99717.56;4362193;32;32410;-82
2022/01/31 03:10:32;;;;;;;14.48;1.52;;;;;;;5.92;40.49;99712.72;4362340;32;33493;-82
2022/01/31 03:13:03;;;;;;;7.20;1.85;;;;;;;5.43;41.37;99719.16;4351934;32;32566;-82
2022/01/31 03:15:31;;;;;;;4.12;1.40;;;;;;;5.80;41.01;99714.75;4355998;32;33375;-82
2022/01/31 03:18:03;;;;;;;12.80;1.73;;;;;;;5.77;40.49;99717.44;4351925;32;34602;-82
2022/01/31 03:20:32;;;;;;;6.78;1.85;;;;;;;5.79;40.51;99722.62;4358165;32;33520;-82
2022/01/31 03:23:00;;;;;;;8.25;1.58;;;;;;;5.87;40.69;99716.28;4364114;32;34050;-83
2022/01/31 03:25:28;;;;;;;12.88;1.77;;;;;;;6.12;39.90;99713.03;4364210;32;33020;-82
2022/01/31 03:27:56;;;;;;;8.45;1.60;;;;;;;5.57;41.18;99712.69;4364176;32;33138;-83
2022/01/31 03:30:24;;;;;;;10.65;1.70;;;;;;;5.79;40.69;99709.53;4368819;32;33231;-82
2022/01/31 03:32:52;;;;;;;6.35;1.50;;;;;;;6.17;39.74;99705.91;4357769;32;35203;-82
2022/01/31 03:35:21;;;;;;;8.10;1.90;;;;;;;5.89;40.05;99696.16;4351662;32;34842;-82
2022/01/31 03:37:49;;;;;;;13.32;1.70;;;;;;;5.76;40.84;99713.09;4361094;32;33457;-84
2022/01/31 03:40:19;;;;;;;6.37;1.52;;;;;;;6.12;39.80;99698.22;4364023;32;33356;-85
2022/01/31 03:42:47;;;;;;;9.20;1.42;;;;;;;6.30;39.23;99695.97;4351966;32;33294;-84
2022/01/31 03:45:15;;;;;;;5.62;1.10;;;;;;;6.45;38.84;99689.41;4351349;32;33726;-84
2022/01/31 03:47:46;;;;;;;8.00;2.22;;;;;;;6.61;38.61;99690.72;4364081;32;33644;-84
2022/01/31 03:50:17;;;;;;;15.33;1.80;;;;;;;6.35;38.81;99696.69;4351275;32;33080;-84
2022/01/31 03:52:45;;;;;;;8.27;2.28;;;;;;;6.24;39.02;99699.62;4351559;32;32305;-84
2022/01/31 03:55:14;;;;;;;11.75;1.45;;;;;;;6.24;38.94;99699.62;4351451;32;33313;-83
2022/01/31 03:57:42;;;;;;;9.93;1.83;;;;;;;5.71;39.51;99704.50;4363568;32;33669;-84
2022/01/31 04:00:14;;;;;;;8.48;1.17;;;;;;;5.94;38.68;99689.97;4363495;32;32632;-85
2022/01/31 04:02:43;;;;;;;6.70;1.40;;;;;;;6.18;38.50;99677.97;4351163;32;33897;-86
2022/01/31 04:05:10;;;;;;;8.35;1.42;;;;;;;6.07;38.48;99665.97;4363733;32;35000;-86
2022/01/31 04:07:39;;;;;;;12.23;1.90;;;;;;;6.22;38.53;99669.09;4345485;32;33699;-85
2022/01/31 04:10:07;;;;;;;11.43;2.05;;;;;;;6.13;38.77;99662.38;4344357;32;32632;-85
2022/01/31 04:12:35;;;;;;;14.75;1.62;;;;;;;6.07;38.71;99671.22;4375713;32;33945;-85
2022/01/31 04:15:02;;;;;;;9.00;2.33;;;;;;;6.13;38.72;99665.84;4359443;32;34133;-85
2022/01/31 04:17:32;;;;;;;12.73;2.10;;;;;;;6.48;37.72;99660.50;4363551;32;34273;-85
2022/01/31 04:20:00;;;;;;;10.40;1.48;;;;;;;6.66;37.13;99650.31;4363465;32;32734;-85
2022/01/31 04:22:31;;;;;;;8.90;1.60;;;;;;;5.80;39.17;99651.84;4376106;32;34057;-84
2022/01/31 04:25:02;;;;;;;7.22;1.48;;;;;;;6.06;38.36;99637.22;4375815;32;33040;-84
2022/01/31 04:27:38;;;;;;;15.27;2.33;;;;;;;6.27;37.82;99634.00;4363754;32;33295;-84
2022/01/31 04:30:07;;;;;;;7.90;1.80;;;;;;;6.22;38.05;99635.00;4362580;32;33246;-83
2022/01/31 04:32:34;;;;;;;11.00;2.00;;;;;;;6.23;37.74;99629.72;4363440;32;32686;-84
2022/01/31 04:35:02;;;;;;;15.57;2.97;;;;;;;6.04;38.49;99637.25;4363355;32;32618;-84
2022/01/31 04:37:29;;;;;;;11.60;2.20;;;;;;;6.40;37.31;99630.09;4363465;32;33346;-84
2022/01/31 04:39:57;;;;;;;8.55;1.60;;;;;;;6.49;37.34;99647.31;4363009;32;33532;-84
2022/01/31 04:42:25;;;;;;;9.65;1.70;;;;;;;6.50;37.28;99650.78;4363236;32;32892;-84
2022/01/31 04:44:57;;;;;;;11.05;1.42;;;;;;;6.41;37.82;99644.94;4361821;32;34102;-84
2022/01/31 04:47:24;;;;;;;11.40;1.75;;;;;;;6.71;36.91;99647.53;4350306;32;33875;-85
2022/01/31 04:49:52;;;;;;;10.68;2.17;;;;;;;6.57;37.13;99634.00;4363497;32;33114;-84
2022/01/31 04:52:19;;;;;;;6.47;1.40;;;;;;;6.39;37.35;99615.25;4363280;32;32402;-84
2022/01/31 04:54:47;;;;;;;7.32;2.00;;;;;;;6.25;37.98;99612.19;4363055;32;34128;-84
2022/01/31 04:57:16;;;;;;;7.72;1.80;;;;;;;6.24;37.93;99605.22;4350801;32;32281;-84
2022/01/31 04:59:44;;;;;;;11.00;1.40;;;;;;;6.53;37.45;99598.25;4362732;32;32370;-83
2022/01/31 05:02:11;;;;;;;13.80;1.98;;;;;;;6.43;37.72;99604.69;4361811;32;34314;-83
2022/01/31 05:04:39;;;;;;;6.72;1.48;;;;;;;6.14;38.44;99609.03;4363156;32;34211;-83
2022/01/31 05:07:06;;;;;;;6.82;0.95;;;;;;;6.21;38.16;99626.28;4362493;32;32202;-83
2022/01/31 05:09:34;;;;;;;7.50;1.77;;;;;;;6.04;38.66;99632.03;4374961;32;33180;-82
2022/01/31 05:12:01;;;;;;;7.80;1.73;;;;;;;5.39;39.87;99632.81;4361603;32;31713;-83
2022/01/31 05:14:28;;;;;;;13.52;1.65;;;;;;;6.22;38.22;99633.28;4375563;32;32980;-83
2022/01/31 05:16:56;;;;;;;11.65;2.35;;;;;;;6.66;37.66;99624.06;4362567;32;33577;-82
2022/01/31 05:19:24;;;;;;;7.70;1.45;;;;;;;6.41;37.62;99615.22;4362825;32;33692;-83
2022/01/31 05:21:51;;;;;;;4.75;1.50;;;;;;;6.17;38.34;99619.41;4374777;32;34036;-83
2022/01/31 05:24:19;;;;;;;10.38;2.42;;;;;;;6.44;38.32;99622.13;4362542;32;34092;-83
2022/01/31 05:26:50;;;;;;;11.27;2.42;;;;;;;6.41;38.55;99613.47;4362682;32;33129;-82
2022/01/31 05:29:18;;;;;;;6.10;1.65;;;;;;;6.30;38.55;99602.41;4349952;32;32747;-82
2022/01/31 05:31:46;;;;;;;9.98;1.80;;;;;;;6.22;39.07;99591.31;4360982;32;33700;-83
2022/01/31 05:34:15;;;;;;;8.65;1.85;;;;;;;6.29;38.40;99582.34;4362029;32;34125;-82
2022/01/31 05:36:42;;;;;;;6.90;1.77;;;;;;;6.06;39.08;99566.44;4336017;32;33304;-83
2022/01/31 05:39:10;;;;;;;7.90;1.55;;;;;;;6.32;38.57;99561.28;4362211;32;33789;-83
2022/01/31 05:41:37;;;;;;;11.73;1.45;;;;;;;6.05;39.43;99565.56;4362498;32;33721;-83
2022/01/31 05:44:04;;;;;;;6.57;1.37;;;;;;;6.18;38.96;99560.84;4350079;32;34022;-83
2022/01/31 05:46:33;;;;;;;11.75;1.77;;;;;;;6.29;38.95;99555.28;4342953;32;32717;-83
2022/01/31 05:49:00;;;;;;;5.82;1.60;;;;;;;6.35;38.82;99549.84;4357809;32;33990;-82
2022/01/31 05:51:28;;;;;;;17.80;2.20;;;;;;;5.77;39.87;99555.00;4367112;32;32716;-82
2022/01/31 05:53:55;;;;;;;13.73;2.12;;;;;;;5.93;39.63;99547.56;4361580;32;34557;-82
2022/01/31 05:56:23;;;;;;;11.73;1.73;;;;;;;6.45;38.66;99551.25;4359227;32;33219;-82
2022/01/31 05:59:05;;;;;;;5.97;1.35;;;;;;;5.90;39.74;99563.38;4374655;32;33192;-83
2022/01/31 06:01:32;;;;;;;5.68;1.98;;;;;;;5.99;39.70;99559.66;4345604;32;34319;-85
2022/01/31 06:04:00;;;;;;;11.18;2.15;;;;;;;6.25;39.43;99554.50;4360606;32;33979;-84
2022/01/31 06:06:28;;;;;;;10.70;1.70;;;;;;;6.51;38.85;99553.72;4358862;32;33599;-85
2022/01/31 06:08:55;;;;;;;11.20;1.45;;;;;;;6.50;38.96;99548.50;4347333;32;33145;-84
2022/01/31 06:11:25;;;;;;;12.57;1.85;;;;;;;6.15;39.71;99559.16;4350092;32;34298;-86
2022/01/31 06:13:55;;;;;;;10.95;2.33;;;;;;;6.19;39.68;99551.22;4342575;32;34445;-83
2022/01/31 06:16:22;;;;;;;11.18;1.98;;;;;;;5.77;41.26;99562.00;4350927;32;33060;-83
2022/01/31 06:18:51;;;;;;;9.25;2.35;;;;;;;6.25;39.90;99564.13;4372870;32;33504;-84
2022/01/31 06:21:18;;;;;;;7.90;1.98;;;;;;;6.06;40.12;99563.81;4350954;32;33394;-83
2022/01/31 06:23:46;;;;;;;14.10;2.35;;;;;;;6.05;40.44;99559.47;4363284;32;33348;-83
2022/01/31 06:26:14;;;;;;;12.82;2.20;;;;;;;6.08;40.57;99557.63;4355274;32;32801;-83
2022/01/31 06:28:45;;;;;;;8.32;2.10;;;;;;;5.97;40.71;99548.34;4361428;32;34585;-84
2022/01/31 06:31:29;;;;;;;9.07;1.87;;;;;;;5.89;40.73;99553.81;4348737;32;33256;-84
2022/01/31 06:33:57;;;;;;;6.43;1.87;;;;;;;6.14;40.31;99559.22;4345054;32;33130;-85
2022/01/31 06:36:25;;;;;;;7.87;1.80;;;;;;;6.23;40.18;99545.84;4357105;32;33191;-83
2022/01/31 06:38:53;;;;;;;7.75;1.73;;;;;;;6.23;40.46;99545.84;4348703;32;34116;-85
2022/01/31 06:41:23;;;;;;;16.42;2.10;;;;;;;6.47;40.05;99538.13;4346152;32;31905;-85
2022/01/31 06:43:51;;;;;;;10.10;2.40;;;;;;;6.00;40.54;99528.16;4350821;32;33112;-86
2022/01/31 06:46:20;;;;;;;11.50;2.75;;;;;;;6.19;40.97;99528.47;4337399;32;33584;-85
2022/01/31 06:48:48;;;;;;;14.60;2.15;;;;;;;6.08;40.64;99517.47;4362919;32;33603;-87
2022/01/31 06:51:15;;;;;;;8.73;1.67;;;;;;;6.09;40.67;99520.03;4351998;32;33751;-86
2022/01/31 06:53:47;;;;;;;13.10;1.87;;;;;;;5.76;41.90;99520.97;4343937;32;33840;-86
2022/01/31 06:56:16;;;;;;;9.40;1.92;;;;;;;6.09;41.55;99525.28;4361567;32;33290;-86
2022/01/31 06:58:45;;;;;;;8.45;2.25;;;;;;;6.24;41.40;99513.47;4356218;32;33974;-86
2022/01/31 07:01:12;;;;;;;10.75;1.90;;;;;;;6.43;40.78;99510.28;4351223;32;32695;-86
2022/01/31 07:03:40;;;;;;;9.98;2.60;;;;;;;6.00;41.67;99504.56;4349953;32;32763;-86
2022/01/31 07:06:08;;;;;;;12.30;2.20;;;;;;;6.33;40.96;99489.56;4355264;32;32957;-85
2022/01/31 07:08:36;;;;;;;6.22;1.67;;;;;;;6.32;41.16;99477.38;4351858;32;32894;-87
2022/01/31 07:11:03;;;;;;;8.32;2.12;;;;;;;6.44;40.95;99475.25;4349516;32;32520;-86
2022/01/31 07:16:03;;;;;;;8.57;1.65;;;;;;;6.21;41.89;99483.84;4360047;32;33539;-87
2022/01/31 07:18:32;;;;;;;15.40;1.40;;;;;;;6.15;41.90;99487.53;4351682;32;32879;-85
2022/01/31 07:21:00;;;;;;;7.47;2.35;;;;;;;6.12;42.10;99491.13;4343292;32;33561;-85
2022/01/31 07:23:51;;;;;;;19.45;2.72;;;;;;;6.44;41.12;99491.84;4349160;32;33173;-86
2022/01/31 07:26:19;;;;;;;10.82;2.55;;;;;;;6.43;41.52;99491.91;4335703;32;32922;-85
2022/01/31 07:28:47;;;;;;;7.20;1.55;;;;;;;6.21;42.11;99483.84;4358608;32;32899;-85
2022/01/31 07:31:15;;;;;;;14.68;2.15;;;;;;;6.70;40.65;99498.91;4348305;32;34634;-86
2022/01/31 07:33:43;;;;;;;8.52;2.20;;;;;;;6.81;40.69;99486.28;4342556;32;33900;-86
2022/01/31 07:36:11;;;;;;;18.75;2.30;;;;;;;6.71;40.77;99470.91;4337675;32;32614;-86
2022/01/31 07:38:41;;;;;;;8.55;1.85;;;;;;;6.72;41.29;99460.34;4323604;32;34144;-86
2022/01/31 07:41:14;;;;;;;11.38;2.10;;;;;;;6.90;40.76;99459.72;4354559;32;33209;-86
2022/01/31 07:43:43;;;;;;;13.18;2.45;;;;;;;7.02;40.93;99460.19;4360201;32;34374;-86
2022/01/31 07:46:13;;;;;;;9.70;2.22;;;;;;;7.00;41.04;99455.00;4347917;32;32506;-86
2022/01/31 07:48:41;;;;;;;10.45;2.53;;;;;;;7.16;41.10;99450.06;4344334;32;32736;-86
2022/01/31 07:51:09;;;;;;;12.98;1.92;;;;;;;7.07;40.85;99447.78;4350211;32;34051;-86
2022/01/31 07:53:38;;;;;;;18.10;2.47;;;;;;;7.11;40.34;99452.00;4350090;32;33513;-86
2022/01/31 07:56:10;;;;;;;10.43;1.75;;;;;;;6.89;40.85;99458.00;4359713;32;33695;-86
2022/01/31 07:58:38;;;;;;;12.95;1.73;;;;;;;6.78;41.00;99459.28;4350650;32;34558;-86
2022/01/31 08:01:08;;;;;;;9.13;1.75;;;;;;;7.03;40.89;99475.06;4356753;32;34002;-86
2022/01/31 08:03:36;;;;;;;13.48;2.78;;;;;;;6.34;42.27;99465.06;4337504;32;33131;-86
2022/01/31 08:06:04;;;;;;;19.12;2.80;;;;;;;6.49;42.54;99465.47;4337179;32;33039;-86
2022/01/31 08:08:34;;;;;;;13.48;4.28;;;;;;;6.58;42.50;99463.41;4349685;32;32761;-86
2022/01/31 08:11:04;;;;;;;10.50;2.85;;;;;;;6.34;43.40;99459.81;4358288;32;34040;-86
2022/01/31 08:13:33;;;;;;;10.23;3.05;;;;;;;6.99;41.87;99448.06;4334518;33;33936;-86
2022/01/31 08:18:30;;;;;;;18.90;3.12;;;;;;;6.67;42.80;99436.87;4349627;32;33545;-86
2022/01/31 08:20:57;;;;;;;15.93;4.32;;;;;;;6.49;43.13;99428.75;4360196;32;34317;-85
2022/01/31 08:23:25;;;;;;;19.27;4.57;;;;;;;6.73;42.83;99425.31;4359398;32;33094;-86
2022/01/31 08:25:53;;;;;;;16.80;3.90;;;;;;;6.96;42.40;99421.91;4343933;32;32916;-86
2022/01/31 08:28:30;;;;;;;14.40;3.87;;;;;;;7.07;42.44;99413.63;4366445;32;33556;-86
2022/01/31 08:31:06;;;;;;;9.88;3.22;;;;;;;7.01;42.22;99414.72;4352228;32;33749;-86
2022/01/31 08:33:49;;;;;;;11.98;2.92;;;;;;;6.63;43.14;99422.16;4375198;32;32834;-86
2022/01/31 08:36:17;;;;;;;8.73;2.25;;;;;;;6.72;43.03;99422.75;4350882;32;33421;-86
2022/01/31 08:38:45;;;;;;;11.20;3.42;;;;;;;7.19;41.87;99428.97;4351004;32;34212;-86
2022/01/31 08:41:14;;;;;;;23.30;3.53;;;;;;;7.09;42.02;99427.59;4362178;32;34079;-86
2022/01/31 08:43:42;;;;;;;10.57;2.35;;;;;;;6.90;42.48;99424.75;4362986;32;33105;-86
2022/01/31 08:46:12;;;;;;;16.27;3.25;;;;;;;7.15;41.76;99416.84;4351372;32;33303;-86
2022/01/31 08:48:40;;;;;;;18.87;2.78;;;;;;;7.31;41.63;99417.16;4375624;32;33874;-86
2022/01/31 08:51:10;;;;;;;11.15;3.10;;;;;;;7.41;41.71;99422.03;4362719;32;32937;-86
2022/01/31 08:53:39;;;;;;;14.02;2.97;;;;;;;7.27;42.02;99411.19;4374938;32;34677;-86
2022/01/31 08:56:10;;;;;;;8.73;2.40;;;;;;;6.51;43.02;99414.72;4351199;32;32717;-86
2022/01/31 08:58:47;;;;;;;22.73;3.35;;;;;;;7.01;42.34;99409.47;4362660;32;33621;-86
2022/01/31 09:01:21;;;;;;;11.60;1.95;;;;;;;6.91;43.13;99408.94;4362598;32;33022;-86
2022/01/31 09:06:23;;;;;;;6.30;2.28;;;;;;;7.10;43.46;99397.78;4362956;32;32250;-86
2022/01/31 09:08:51;;;;;;;9.82;2.65;;;;;;;6.91;43.42;99393.19;4362834;32;32253;-86
2022/01/31 09:11:19;;;;;;;11.73;2.92;;;;;;;6.71;44.04;99395.66;4368002;32;32846;-86
2022/01/31 09:13:46;;;;;;;9.40;2.50;;;;;;;7.17;43.34;99388.78;4373215;32;33410;-86
2022/01/31 09:16:14;;;;;;;5.40;2.17;;;;;;;7.40;42.28;99394.03;4338066;32;33590;-86
2022/01/31 09:18:42;;;;;;;9.45;2.70;;;;;;;7.78;41.64;99396.12;4349343;32;34229;-86
2022/01/31 09:21:11;;;;;;;15.60;3.17;;;;;;;8.08;40.91;99378.31;4348933;32;33903;-86
2022/01/31 09:23:39;;;;;;;17.30;3.75;;;;;;;7.84;41.26;99391.50;4362034;32;33211;-86
2022/01/31 09:26:06;;;;;;;17.92;3.17;;;;;;;7.82;40.86;99393.31;4350303;32;33630;-86
2022/01/31 09:28:35;;;;;;;11.63;3.15;;;;;;;7.80;41.49;99384.66;4347751;32;34068;-86
2022/01/31 09:31:04;;;;;;;13.43;2.53;;;;;;;7.81;41.27;99378.47;4362671;32;32600;-86
2022/01/31 09:33:32;;;;;;;6.68;2.20;;;;;;;8.30;40.60;99373.84;4352382;32;34464;-87
2022/01/31 09:36:02;;;;;;;11.98;2.25;;;;;;;8.46;40.03;99353.09;4364398;32;33808;-86
2022/01/31 09:38:30;;;;;;;10.73;2.70;;;;;;;8.46;39.68;99359.19;4351862;32;33152;-87
2022/01/31 09:40:58;;;;;;;7.55;1.90;;;;;;;8.51;39.70;99334.47;4363502;32;33513;-87
2022/01/31 09:48:32;;;;;;;6.60;2.30;;;;;;;8.64;38.40;99309.31;4376932;32;32754;-86
2022/01/31 09:51:08;;;;;;;12.45;2.22;;;;;;;8.43;38.44;99325.13;4352930;32;33301;-86
2022/01/31 09:53:43;;;;;;;8.30;1.92;;;;;;;8.85;39.12;99307.53;4352362;32;32877;-86
2022/01/31 09:56:13;;;;;;;5.68;2.00;;;;;;;8.73;37.71;99293.13;4363895;32;33398;-87
2022/01/31 09:58:42;;;;;;;8.30;2.05;;;;;;;8.52;38.29;99283.56;4352287;32;33730;-86
2022/01/31 10:01:54;;;;;;;12.98;2.75;;;;;;;8.65;38.24;99284.72;4364211;32;34684;-86
2022/01/31 10:04:24;;;;;;;10.18;1.62;;;;;;;8.83;37.90;99269.87;4330513;33;32683;-87
2022/01/31 10:06:54;;;;;;;12.20;2.28;;;;;;;8.60;38.39;99271.78;4327838;33;32170;-86
2022/01/31 10:09:24;;;;;;;13.10;1.77;;;;;;;8.41;39.15;99269.09;4350521;32;33845;-86
2022/01/31 10:12:04;;;;;;;5.57;2.03;;;;;;;8.49;37.69;99283.66;4361651;32;33559;-86
2022/01/31 10:17:32;;;;;;;11.10;1.98;;;;;;;8.67;38.04;99267.09;4363280;32;32277;-86
2022/01/31 10:20:14;;;;;;;12.70;1.95;;;;;;;8.80;37.84;99256.88;4376406;32;33703;-86
2022/01/31 10:22:42;;;;;;;7.82;2.65;;;;;;;8.79;38.50;99265.69;4376434;32;33945;-86
2022/01/31 10:25:14;;;;;;;12.82;2.67;;;;;;;8.77;37.65;99249.09;4364356;32;34072;-86
2022/01/31 10:28:10;;;;;;;10.82;2.83;;;;;;;8.84;37.84;99242.66;4353223;32;32604;-86
2022/01/31 10:30:38;;;;;;;10.23;3.70;;;;;;;8.88;37.70;99221.38;4357073;32;33869;-87
2022/01/31 10:33:08;;;;;;;13.10;3.00;;;;;;;8.79;37.41;99218.31;4363991;32;32610;-86
2022/01/31 10:35:39;;;;;;;13.02;3.10;;;;;;;8.86;37.82;99227.62;4363163;32;34225;-86
2022/01/31 10:38:11;;;;;;;9.47;2.13;;;;;;;8.77;37.18;99221.00;4352409;32;32856;-86
2022/01/31 10:44:12;;;;;;;15.18;2.35;;;;;;;9.35;37.55;99213.03;4362703;32;32639;-86
2022/01/31 10:52:32;;;;;;;9.85;1.90;;;;;;;9.20;37.26;99185.59;4358571;32;32678;-86
2022/01/31 10:55:14;;;;;;;11.68;2.80;;;;;;;9.42;37.03;99185.44;4363334;32;35182;-86
2022/01/31 10:57:42;;;;;;;8.27;2.05;;;;;;;9.23;37.58;99179.34;4376152;32;34470;-87
2022/01/31 11:00:11;;;;;;;8.50;2.28;;;;;;;9.09;38.20;99172.09;4362360;32;33473;-86
2022/01/31 11:02:38;;;;;;;7.57;2.12;;;;;;;9.13;36.86;99164.91;4351495;32;32853;-86
2022/01/31 11:05:23;;;;;;;5.03;1.90;;;;;;;9.17;36.68;99166.47;4363883;32;32862;-87
2022/01/31 11:07:50;;;;;;;12.70;2.47;;;;;;;9.26;36.64;99167.78;4362984;32;33672;-86
2022/01/31 11:10:28;;;;;;;5.80;1.45;;;;;;;8.95;37.67;99162.22;4363942;32;34311;-87
2022/01/31 11:12:57;;;;;;;9.93;2.35;;;;;;;9.15;36.78;99148.09;4376290;32;33713;-86
2022/01/31 11:15:25;;;;;;;8.02;1.90;;;;;;;9.00;36.16;99148.00;4364334;32;33598;-86
2022/01/31 11:17:59;;;;;;;6.60;2.35;;;;;;;8.74;36.36;99147.44;4360057;32;32938;-86
2022/01/31 11:20:28;;;;;;;8.35;1.85;;;;;;;8.96;36.22;99123.59;4375604;32;33618;-86
2022/01/31 11:22:58;;;;;;;7.70;2.55;;;;;;;9.00;37.31;99105.88;4376171;32;32598;-86
2022/01/31 11:25:27;;;;;;;15.52;1.98;;;;;;;8.95;37.11;99099.03;4363557;32;33764;-86
2022/01/31 11:28:02;;;;;;;13.15;2.60;;;;;;;8.68;36.51;99092.44;4351492;32;33635;-86
2022/01/31 11:30:30;;;;;;;7.32;2.28;;;;;;;9.04;36.54;99075.81;4351495;32;32916;-87
2022/01/31 11:32:58;;;;;;;13.50;1.80;;;;;;;9.15;36.37;99065.59;4356248;32;33476;-86
2022/01/31 11:35:26;;;;;;;7.07;2.03;;;;;;;9.07;36.86;99055.47;4351241;32;34176;-87
2022/01/31 11:37:53;;;;;;;11.32;2.55;;;;;;;9.22;36.32;99048.59;4344772;32;34103;-86
2022/01/31 11:40:22;;;;;;;6.72;1.62;;;;;;;9.39;35.83;99056.47;4359817;32;33478;-87
2022/01/31 11:42:50;;;;;;;12.32;2.17;;;;;;;9.26;35.76;99052.78;4347388;32;32796;-86
2022/01/31 11:45:21;;;;;;;11.35;3.17;;;;;;;8.94;37.80;99057.84;4358222;32;32963;-87
2022/01/31 11:47:50;;;;;;;10.32;1.87;;;;;;;8.98;37.27;99058.56;4334643;32;33231;-87
2022/01/31 11:50:19;;;;;;;11.10;1.70;;;;;;;9.23;36.41;99045.00;4343561;32;32747;-86
2022/01/31 11:52:49;;;;;;;7.87;1.70;;;;;;;9.21;37.26;99021.41;4345755;32;33692;-87
2022/01/31 11:55:20;;;;;;;10.98;2.65;;;;;;;9.29;36.59;99012.22;4361678;32;34431;-86
2022/01/31 11:57:49;;;;;;;12.50;2.10;;;;;;;9.28;36.94;99000.84;4362108;32;34143;-87
2022/01/31 12:00:22;;;;;;;10.70;3.53;;;;;;;9.04;37.27;99020.53;4362307;32;33216;-87
2022/01/31 12:02:52;;;;;;;8.52;2.33;;;;;;;9.43;36.71;99026.41;4355455;32;32261;-86
2022/01/31 12:05:22;;;;;;;14.38;3.50;;;;;;;9.35;36.18;99025.97;4348052;32;32915;-87
2022/01/31 12:08:08;;;;;;;10.30;2.35;;;;;;;9.53;36.00;99018.87;4358173;32;34283;-86
2022/01/31 12:10:40;;;;;;;9.35;1.87;;;;;;;9.04;36.85;99020.53;4348132;32;31871;-86
2022/01/31 12:13:49;;;;;;;9.15;1.73;;;;;;;9.37;36.80;99037.25;4375369;32;33789;-87
2022/01/31 12:19:31;;;;;;;14.15;2.53;;;;;;;9.46;37.21;99036.78;4358206;32;34526;-86
2022/01/31 12:22:01;;;;;;;16.12;1.77;;;;;;;9.00;37.08;99040.03;4350471;32;33273;-88